Time;durP1;ratioP1;P1;durP2;ratioP2;P2;SDS_P1;SDS_P2;PMS_P1;PMS_P2;Temp;Humidity;BMP_temperature;BMP_pressure;BME280_temperature;BME280_humidity;BME280_pressure;Samples;Min_cycle;Max_cycle;Signal;HPM_P1;HPM_P2
2022/07/29 00:01:08;;;;;;;15.40;11.00;;;;;;;21.28;100.00;94882.25;6246826;23;20517;-80
2022/07/29 00:03:35;;;;;;;12.15;10.02;;;;;;;21.29;100.00;94883.84;6247799;23;20197;-80
2022/07/29 00:06:04;;;;;;;14.20;10.23;;;;;;;21.34;100.00;94897.81;6246339;23;20525;-80
2022/07/29 00:08:30;;;;;;;13.55;10.27;;;;;;;21.27;100.00;94886.75;6246595;23;20178;-79
2022/07/29 00:10:57;;;;;;;13.48;11.23;;;;;;;21.37;99.90;94899.09;6248310;23;20180;-81
2022/07/29 00:13:24;;;;;;;13.13;10.95;;;;;;;21.31;99.19;94892.28;6263750;22;20204;-81
2022/07/29 00:15:51;;;;;;;13.77;10.68;;;;;;;21.28;98.71;94891.00;6271800;22;20528;-80
2022/07/29 00:18:18;;;;;;;12.40;10.77;;;;;;;21.35;98.34;94904.69;6271680;22;20302;-82
2022/07/29 00:20:44;;;;;;;13.07;10.85;;;;;;;21.37;98.03;94891.97;6271297;22;20666;-81
2022/07/29 00:23:13;;;;;;;13.52;11.38;;;;;;;21.38;98.02;94887.47;6272013;22;20203;-81
2022/07/29 00:25:40;;;;;;;15.38;11.23;;;;;;;21.16;99.01;94879.97;6272418;22;20188;-81
2022/07/29 00:28:06;;;;;;;14.38;11.20;;;;;;;21.13;100.00;94895.59;6272102;22;20168;-80
2022/07/29 00:30:33;;;;;;;16.70;10.45;;;;;;;21.06;100.00;94892.47;6271911;22;20161;-80
2022/07/29 00:33:00;;;;;;;14.75;11.15;;;;;;;21.03;100.00;94901.75;6271703;22;20165;-80
2022/07/29 00:35:44;;;;;;;14.55;11.75;;;;;;;20.92;100.00;94879.88;6271357;22;20232;-81
2022/07/29 00:38:13;;;;;;;15.55;11.05;;;;;;;20.97;100.00;94894.13;6271705;22;20157;-79
2022/07/29 00:40:40;;;;;;;14.23;11.30;;;;;;;21.07;100.00;94904.63;6271468;22;20196;-78
2022/07/29 00:43:07;;;;;;;14.88;11.98;;;;;;;20.90;100.00;94882.03;6269686;22;20192;-79
2022/07/29 00:45:34;;;;;;;18.40;12.20;;;;;;;20.87;100.00;94892.34;6271081;22;20268;-79
2022/07/29 00:48:00;;;;;;;15.40;12.10;;;;;;;20.88;100.00;94901.88;6271311;22;20169;-78
2022/07/29 00:50:27;;;;;;;16.23;11.90;;;;;;;20.75;100.00;94899.84;6270576;22;20643;-79
2022/07/29 00:52:55;;;;;;;16.08;12.05;;;;;;;20.68;100.00;94908.09;6271329;22;20172;-80
2022/07/29 00:55:23;;;;;;;16.85;12.57;;;;;;;20.61;100.00;94891.75;6271246;22;20172;-80
2022/07/29 00:57:50;;;;;;;14.60;11.40;;;;;;;20.71;100.00;94899.59;6269547;22;20251;-80
2022/07/29 01:00:22;;;;;;;14.25;11.93;;;;;;;20.53;100.00;94894.97;6270299;22;20472;-79
2022/07/29 01:06:19;;;;;;;18.25;12.10;;;;;;;20.52;100.00;94893.38;6128904;23;20714;-84
2022/07/29 01:08:49;;;;;;;16.30;12.43;;;;;;;20.17;100.00;94881.13;6250058;22;20192;-82
2022/07/29 01:11:18;;;;;;;13.93;11.73;;;;;;;19.99;100.00;94878.31;6271916;22;20512;-82
2022/07/29 01:13:46;;;;;;;16.92;12.77;;;;;;;20.11;100.00;94876.97;6270529;22;20196;-82
2022/07/29 01:16:22;;;;;;;17.75;12.05;;;;;;;20.18;100.00;94872.16;6271335;22;20169;-79
2022/07/29 01:18:54;;;;;;;17.70;12.52;;;;;;;20.25;100.00;94875.34;6270942;22;20172;-79
2022/07/29 01:21:52;;;;;;;15.20;12.38;;;;;;;20.26;100.00;94882.16;6270533;22;20172;-78
2022/07/29 01:24:35;;;;;;;17.50;12.63;;;;;;;20.32;100.00;94870.53;6271225;22;20173;-78
2022/07/29 01:27:23;;;;;;;19.10;12.32;;;;;;;20.37;100.00;94870.47;6271387;22;20154;-79
2022/07/29 01:29:56;;;;;;;17.15;12.05;;;;;;;20.40;100.00;94861.25;6270936;22;20157;-79
2022/07/29 01:32:27;;;;;;;16.98;11.98;;;;;;;20.45;100.00;94863.84;6270996;22;20168;-80
2022/07/29 01:34:58;;;;;;;15.68;12.80;;;;;;;20.42;100.00;94858.34;6270447;22;20168;-80
2022/07/29 01:37:29;;;;;;;17.30;13.52;;;;;;;20.38;100.00;94858.88;6271171;22;20180;-79
2022/07/29 01:39:58;;;;;;;14.93;12.50;;;;;;;20.08;100.00;94847.69;6271204;22;20157;-80
2022/07/29 01:42:31;;;;;;;18.63;12.50;;;;;;;20.05;100.00;94858.78;6271067;22;20171;-79
2022/07/29 01:45:04;;;;;;;17.85;12.27;;;;;;;20.03;100.00;94863.53;6271743;22;20161;-80
2022/07/29 01:47:38;;;;;;;15.18;11.85;;;;;;;20.00;100.00;94856.16;6272344;22;20158;-78
2022/07/29 01:50:09;;;;;;;17.88;12.40;;;;;;;20.04;100.00;94862.47;6271031;22;20164;-81
2022/07/29 01:52:43;;;;;;;22.48;12.75;;;;;;;20.05;100.00;94850.84;6270424;22;20236;-79
2022/07/29 01:55:14;;;;;;;20.65;12.70;;;;;;;20.09;100.00;94862.44;6271562;22;20496;-79
2022/07/29 01:57:47;;;;;;;18.27;12.27;;;;;;;20.15;100.00;94856.06;6270151;22;20153;-79
2022/07/29 02:00:17;;;;;;;15.93;12.45;;;;;;;19.98;100.00;94831.88;6270730;22;20164;-78
2022/07/29 02:02:47;;;;;;;22.45;12.80;;;;;;;20.06;100.00;94855.84;6270365;22;20192;-79
2022/07/29 02:05:16;;;;;;;14.55;11.43;;;;;;;19.99;100.00;94846.66;6270507;22;20242;-79
2022/07/29 02:07:45;;;;;;;15.82;12.40;;;;;;;19.88;100.00;94850.41;6269945;22;20177;-79
2022/07/29 02:10:13;;;;;;;18.85;12.65;;;;;;;19.74;100.00;94850.19;6271143;22;20180;-79
2022/07/29 02:12:43;;;;;;;17.40;12.40;;;;;;;19.78;100.00;94840.69;6268897;22;20193;-79
2022/07/29 02:15:12;;;;;;;17.92;12.43;;;;;;;19.83;100.00;94844.09;6270787;22;20149;-81
2022/07/29 02:17:44;;;;;;;20.23;12.48;;;;;;;19.86;100.00;94836.69;6270598;22;20551;-80
2022/07/29 02:20:12;;;;;;;15.63;11.57;;;;;;;19.90;100.00;94833.25;6270112;22;20882;-80
2022/07/29 02:22:41;;;;;;;21.65;13.25;;;;;;;19.76;100.00;94832.25;6270378;22;20173;-81
2022/07/29 02:25:10;;;;;;;16.30;12.48;;;;;;;19.73;100.00;94830.16;6271009;22;20169;-80
2022/07/29 02:27:40;;;;;;;19.70;12.77;;;;;;;19.76;100.00;94830.41;6271534;22;20226;-79
2022/07/29 02:30:09;;;;;;;18.50;12.25;;;;;;;19.86;100.00;94828.75;6272196;22;20624;-80
2022/07/29 02:32:38;;;;;;;14.77;12.20;;;;;;;19.90;100.00;94825.34;6271338;22;20176;-79
2022/07/29 02:35:08;;;;;;;14.07;11.75;;;;;;;19.92;100.00;94822.41;6270294;22;20566;-80
2022/07/29 02:37:37;;;;;;;18.58;12.02;;;;;;;19.96;100.00;94818.97;6270742;22;20492;-80
2022/07/29 02:40:07;;;;;;;18.15;12.13;;;;;;;19.80;100.00;94812.97;6270687;22;20638;-79
2022/07/29 02:42:36;;;;;;;14.95;11.60;;;;;;;19.64;100.00;94819.38;6270437;22;20164;-79
2022/07/29 02:45:03;;;;;;;18.45;12.20;;;;;;;19.65;100.00;94825.44;6270651;22;20165;-79
2022/07/29 02:47:37;;;;;;;18.42;12.25;;;;;;;19.59;100.00;94816.78;6270421;22;20179;-79
2022/07/29 02:50:10;;;;;;;16.63;11.40;;;;;;;19.61;100.00;94813.84;6271412;22;20158;-78
2022/07/29 02:52:43;;;;;;;17.45;12.68;;;;;;;19.72;100.00;94820.66;6271650;22;20160;-80
2022/07/29 02:55:17;;;;;;;19.70;12.43;;;;;;;19.67;100.00;94818.03;6271455;22;20506;-79
2022/07/29 02:57:48;;;;;;;15.60;11.98;;;;;;;19.67;100.00;94810.94;6270544;22;20781;-80
2022/07/29 03:00:17;;;;;;;15.27;12.10;;;;;;;19.74;100.00;94805.34;6270525;22;20210;-81
2022/07/29 03:02:46;;;;;;;20.52;12.52;;;;;;;19.91;100.00;94819.00;6269979;22;20173;-79
2022/07/29 03:05:19;;;;;;;19.77;13.10;;;;;;;19.94;100.00;94818.44;6270510;22;20165;-79
2022/07/29 03:07:48;;;;;;;21.92;13.60;;;;;;;19.92;100.00;94817.94;6270687;22;20153;-79
2022/07/29 03:10:15;;;;;;;19.42;13.35;;;;;;;19.96;100.00;94818.19;6270658;22;20219;-79
2022/07/29 03:12:43;;;;;;;17.33;13.10;;;;;;;19.90;100.00;94817.41;6271332;22;20763;-80
2022/07/29 03:15:11;;;;;;;18.40;14.00;;;;;;;19.89;100.00;94817.66;6271309;22;20160;-80
2022/07/29 03:17:40;;;;;;;21.90;14.02;;;;;;;19.85;100.00;94824.56;6270647;22;20168;-80
2022/07/29 03:20:08;;;;;;;18.05;14.20;;;;;;;19.81;100.00;94816.41;6270603;22;20173;-80
2022/07/29 03:22:43;;;;;;;18.88;15.75;;;;;;;19.85;100.00;94821.94;6271036;22;20180;-80
2022/07/29 03:25:11;;;;;;;24.45;15.20;;;;;;;19.73;100.00;94812.50;6269438;22;20188;-79
2022/07/29 03:27:38;;;;;;;21.40;15.70;;;;;;;19.81;100.00;94824.31;6268600;22;20165;-80
2022/07/29 03:30:05;;;;;;;22.92;17.02;;;;;;;19.61;100.00;94822.56;6269047;22;20177;-78
2022/07/29 03:32:32;;;;;;;21.70;16.00;;;;;;;19.51;100.00;94821.81;6270475;22;20165;-80
2022/07/29 03:34:59;;;;;;;25.00;16.52;;;;;;;19.45;100.00;94834.19;6270914;22;20196;-80
2022/07/29 03:37:26;;;;;;;24.38;16.05;;;;;;;19.26;100.00;94835.81;6270528;22;20165;-80
2022/07/29 03:39:57;;;;;;;25.77;16.02;;;;;;;19.16;100.00;94836.59;6270880;22;20176;-81
2022/07/29 03:42:26;;;;;;;25.85;16.65;;;;;;;19.19;100.00;94836.06;6269574;22;20250;-76
2022/07/29 03:44:55;;;;;;;23.58;15.07;;;;;;;19.17;100.00;94835.56;6268823;22;20204;-76
2022/07/29 03:47:26;;;;;;;23.98;15.50;;;;;;;19.15;100.00;94839.53;6268778;22;20172;-76
2022/07/29 03:49:56;;;;;;;20.45;14.38;;;;;;;19.09;100.00;94836.09;6269076;22;20913;-76
2022/07/29 03:52:23;;;;;;;17.77;13.57;;;;;;;18.99;100.00;94841.38;6271913;22;20164;-76
2022/07/29 03:54:50;;;;;;;20.20;14.20;;;;;;;19.09;100.00;94843.22;6271449;22;20165;-76
2022/07/29 03:57:21;;;;;;;21.58;13.90;;;;;;;19.23;100.00;94839.75;6270404;22;20168;-76
2022/07/29 03:59:48;;;;;;;21.70;14.18;;;;;;;19.28;100.00;94842.38;6270017;22;20168;-76
2022/07/29 04:02:15;;;;;;;21.48;14.30;;;;;;;19.37;100.00;94841.84;6270157;22;20176;-75
2022/07/29 04:04:42;;;;;;;23.17;14.48;;;;;;;19.47;100.00;94845.28;6270011;22;20215;-76
2022/07/29 04:07:12;;;;;;;24.92;15.10;;;;;;;19.53;100.00;94841.56;6270764;22;20212;-76
2022/07/29 04:09:39;;;;;;;28.50;16.23;;;;;;;19.58;100.00;94846.81;6270309;22;20164;-75
2022/07/29 04:12:06;;;;;;;22.17;15.65;;;;;;;19.63;100.00;94843.38;6270982;22;20184;-75
2022/07/29 04:14:36;;;;;;;22.85;16.58;;;;;;;19.64;100.00;94840.47;6270656;22;20462;-77
2022/07/29 04:17:04;;;;;;;21.35;16.10;;;;;;;19.63;100.00;94830.97;6269663;22;20157;-76
2022/07/29 04:19:32;;;;;;;24.65;16.55;;;;;;;19.68;100.00;94838.09;6270524;22;20172;-76
2022/07/29 04:22:00;;;;;;;24.75;17.33;;;;;;;19.72;100.00;94831.22;6270424;22;20165;-76
2022/07/29 04:24:26;;;;;;;23.73;17.20;;;;;;;19.81;100.00;94832.22;6269771;22;20272;-77
2022/07/29 04:26:54;;;;;;;23.45;16.88;;;;;;;19.89;100.00;94839.56;6270479;22;20173;-76
2022/07/29 04:29:21;;;;;;;22.98;17.08;;;;;;;19.91;100.00;94842.75;6270547;22;20180;-77
2022/07/29 04:31:49;;;;;;;24.42;17.70;;;;;;;19.95;100.00;94837.69;6270547;22;20165;-76
2022/07/29 04:34:16;;;;;;;27.85;17.60;;;;;;;19.99;100.00;94847.47;6270162;22;20165;-75
2022/07/29 04:36:43;;;;;;;28.70;17.33;;;;;;;20.00;100.00;94856.94;6270007;22;20176;-76
2022/07/29 04:39:10;;;;;;;26.00;17.92;;;;;;;20.00;100.00;94850.88;6269539;22;20172;-76
2022/07/29 04:41:37;;;;;;;29.80;17.48;;;;;;;19.94;100.00;94847.47;6268370;22;20171;-76
2022/07/29 04:44:05;;;;;;;23.50;17.33;;;;;;;19.94;100.00;94846.69;6268815;22;20193;-76
2022/07/29 04:46:35;;;;;;;22.52;16.55;;;;;;;19.85;100.00;94845.69;6269111;22;20165;-77
2022/07/29 04:49:04;;;;;;;25.40;16.55;;;;;;;19.90;100.00;94854.34;6270272;22;20165;-76
2022/07/29 04:51:30;;;;;;;23.38;16.30;;;;;;;19.99;100.00;94863.28;6256329;22;20216;-76
2022/07/29 04:53:57;;;;;;;23.90;16.33;;;;;;;20.06;100.00;94861.13;6264053;22;20169;-76
2022/07/29 04:56:24;;;;;;;24.13;16.98;;;;;;;20.12;100.00;94865.31;6265069;22;20173;-76
2022/07/29 04:58:51;;;;;;;28.90;21.08;;;;;;;20.12;100.00;94867.16;6264476;22;20173;-75
2022/07/29 05:01:18;;;;;;;33.53;20.80;;;;;;;20.11;100.00;94857.69;6265972;22;20523;-75
2022/07/29 05:03:46;;;;;;;25.27;20.83;;;;;;;20.13;100.00;94859.00;6265044;22;20197;-76
2022/07/29 05:06:14;;;;;;;27.85;21.17;;;;;;;19.89;100.00;94846.69;6265391;22;20764;-76
2022/07/29 05:08:41;;;;;;;30.38;20.27;;;;;;;20.04;100.00;94863.25;6267021;22;20705;-76
2022/07/29 05:11:08;;;;;;;29.42;18.60;;;;;;;20.04;100.00;94863.25;6265553;22;20169;-76
2022/07/29 05:13:34;;;;;;;24.15;19.08;;;;;;;20.16;100.00;94863.72;6265136;22;20223;-77
2022/07/29 05:16:01;;;;;;;25.77;18.25;;;;;;;20.27;100.00;94867.13;6266076;22;20169;-77
2022/07/29 05:18:28;;;;;;;26.20;18.58;;;;;;;20.29;100.00;94876.34;6264758;22;20172;-76
2022/07/29 05:20:55;;;;;;;21.67;18.17;;;;;;;20.38;100.00;94872.06;6263355;22;20226;-76
2022/07/29 05:23:23;;;;;;;26.10;18.75;;;;;;;20.42;100.00;94884.72;6264120;22;20912;-75
2022/07/29 05:25:51;;;;;;;31.08;17.45;;;;;;;20.37;100.00;94878.41;6264386;22;20196;-76
2022/07/29 05:28:17;;;;;;;32.40;18.33;;;;;;;20.32;100.00;94856.53;6264583;22;20671;-81
2022/07/29 05:30:45;;;;;;;24.98;18.55;;;;;;;20.51;100.00;94875.19;6264430;22;20169;-76
2022/07/29 05:33:12;;;;;;;21.45;16.95;;;;;;;20.53;100.00;94867.75;6263164;22;20200;-77
2022/07/29 05:35:38;;;;;;;30.38;18.38;;;;;;;20.61;100.00;94870.59;6263843;22;20173;-77
2022/07/29 05:38:08;;;;;;;26.65;17.45;;;;;;;20.68;100.00;94872.94;6264718;22;20671;-77
2022/07/29 05:40:36;;;;;;;25.73;18.45;;;;;;;20.76;100.00;94877.63;6264674;22;20183;-78
2022/07/29 05:43:03;;;;;;;27.25;18.25;;;;;;;20.77;100.00;94881.88;6265563;22;20665;-77
2022/07/29 05:45:30;;;;;;;27.17;17.35;;;;;;;20.84;100.00;94877.03;6266179;22;20706;-77
2022/07/29 05:47:56;;;;;;;23.95;17.42;;;;;;;20.80;100.00;94876.81;6264642;22;20168;-77
2022/07/29 05:50:24;;;;;;;27.42;18.08;;;;;;;20.88;100.00;94878.09;6264014;22;20169;-76
2022/07/29 05:52:51;;;;;;;29.92;18.80;;;;;;;20.86;100.00;94880.22;6262698;22;20276;-77
2022/07/29 05:55:44;;;;;;;27.75;17.65;;;;;;;20.83;100.00;94878.13;6264430;22;20175;-76
2022/07/29 05:58:14;;;;;;;25.88;16.98;;;;;;;20.79;100.00;94879.72;6264134;22;20582;-77
2022/07/29 06:00:41;;;;;;;24.40;16.80;;;;;;;20.79;100.00;94869.97;6262239;22;20492;-76
2022/07/29 06:03:08;;;;;;;23.33;15.95;;;;;;;20.90;100.00;94876.72;6264717;22;20172;-76
2022/07/29 06:05:35;;;;;;;21.63;16.38;;;;;;;21.07;100.00;94880.84;6264788;22;20189;-77
2022/07/29 06:08:02;;;;;;;24.20;16.05;;;;;;;21.12;100.00;94878.97;6266126;22;20179;-77
2022/07/29 06:10:29;;;;;;;23.58;15.10;;;;;;;21.20;100.00;94882.88;6264955;22;20173;-77
2022/07/29 06:12:56;;;;;;;20.27;14.48;;;;;;;21.21;100.00;94887.88;6264091;22;20940;-77
2022/07/29 06:15:24;;;;;;;24.42;14.13;;;;;;;21.29;100.00;94882.00;6265450;22;20207;-77
2022/07/29 06:17:51;;;;;;;20.65;12.88;;;;;;;21.37;100.00;94889.31;6262143;22;20173;-78
2022/07/29 06:20:18;;;;;;;15.23;11.77;;;;;;;21.45;100.00;94885.25;6262813;22;20173;-76
2022/07/29 06:22:44;;;;;;;13.85;10.02;;;;;;;21.48;100.00;94882.84;6264489;22;20176;-77
2022/07/29 06:25:12;;;;;;;16.00;8.43;;;;;;;21.60;100.00;94882.47;6266554;22;20192;-76
2022/07/29 06:27:38;;;;;;;11.23;8.43;;;;;;;21.61;98.00;94877.97;6264216;22;20169;-77
2022/07/29 06:30:07;;;;;;;12.68;8.10;;;;;;;21.62;96.31;94872.38;6262682;22;20176;-76
2022/07/29 06:32:36;;;;;;;14.32;8.02;;;;;;;21.76;95.76;94873.28;6264634;22;20164;-77
2022/07/29 06:35:04;;;;;;;14.25;8.18;;;;;;;21.88;94.90;94880.88;6264839;22;20161;-77
2022/07/29 06:37:31;;;;;;;11.13;8.20;;;;;;;21.91;95.24;94872.34;6264919;22;20169;-76
2022/07/29 06:42:38;;;;;;;14.60;7.78;;;;;;;22.21;93.91;94873.84;6262138;22;20173;-77
2022/07/29 06:45:05;;;;;;;10.82;7.38;;;;;;;22.30;92.74;94867.63;6264446;22;20196;-76
2022/07/29 06:47:32;;;;;;;9.88;7.40;;;;;;;22.47;89.91;94872.44;6265102;22;20173;-77
2022/07/29 06:50:01;;;;;;;13.23;7.28;;;;;;;22.51;90.58;94876.09;6264437;22;20169;-78
2022/07/29 06:52:27;;;;;;;13.00;7.20;;;;;;;22.59;90.78;94876.25;6264383;22;20165;-76
2022/07/29 06:54:54;;;;;;;8.80;7.40;;;;;;;22.70;89.66;94881.41;6262183;22;20191;-76
2022/07/29 06:57:21;;;;;;;13.25;7.13;;;;;;;22.77;89.57;94885.25;6264341;22;20172;-76
2022/07/29 06:59:48;;;;;;;9.73;7.20;;;;;;;22.82;89.22;94874.59;6263696;22;20172;-76
2022/07/29 07:02:15;;;;;;;11.20;6.63;;;;;;;22.90;88.30;94876.59;6265132;22;20234;-77
2022/07/29 07:04:42;;;;;;;11.35;6.72;;;;;;;22.98;87.98;94872.47;6264329;22;20204;-77
2022/07/29 07:07:10;;;;;;;10.13;6.78;;;;;;;23.11;86.62;94866.44;6263382;22;20172;-76
2022/07/29 07:09:37;;;;;;;8.57;7.10;;;;;;;23.16;84.95;94863.69;6252182;22;20175;-76
2022/07/29 07:12:04;;;;;;;8.18;6.93;;;;;;;23.29;84.06;94864.81;6251839;22;20196;-76
2022/07/29 07:14:31;;;;;;;7.18;6.30;;;;;;;23.37;83.94;94867.59;6264419;22;20718;-76
2022/07/29 07:17:00;;;;;;;11.63;8.32;;;;;;;23.45;84.05;94869.59;6264485;22;20169;-76
2022/07/29 07:19:27;;;;;;;13.38;9.50;;;;;;;23.54;83.92;94867.84;6264843;22;20242;-76
2022/07/29 07:21:54;;;;;;;11.40;7.30;;;;;;;23.67;83.00;94864.41;6265102;22;20247;-73
2022/07/29 07:24:22;;;;;;;10.30;7.13;;;;;;;23.71;82.58;94868.06;6263401;22;20823;-77
2022/07/29 07:26:49;;;;;;;9.10;6.60;;;;;;;23.82;82.55;94867.84;6265726;22;20256;-86
2022/07/29 07:29:16;;;;;;;10.38;6.40;;;;;;;23.91;82.50;94863.41;6266038;22;20167;-75
2022/07/29 07:31:43;;;;;;;8.88;6.03;;;;;;;24.10;80.88;94862.25;6267050;22;20175;-80
2022/07/29 07:34:10;;;;;;;14.65;6.80;;;;;;;24.26;83.32;94865.38;6269731;22;20161;-80
2022/07/29 07:36:37;;;;;;;8.25;5.43;;;;;;;24.40;81.70;94868.00;6269581;22;20717;-82
2022/07/29 07:39:05;;;;;;;9.30;6.50;;;;;;;24.57;78.84;94874.28;6269983;22;20172;-82
2022/07/29 07:41:33;;;;;;;9.95;6.60;;;;;;;24.72;77.63;94873.13;6269780;22;20556;-84
2022/07/29 07:44:00;;;;;;;9.95;6.72;;;;;;;24.70;76.94;94862.78;6268835;22;20169;-81
2022/07/29 07:46:27;;;;;;;6.30;5.20;;;;;;;24.75;78.26;94865.34;6267485;22;20188;-82
2022/07/29 07:48:54;;;;;;;13.50;6.15;;;;;;;24.84;77.67;94870.78;6269502;22;20169;-82
2022/07/29 07:51:21;;;;;;;7.78;6.22;;;;;;;24.93;75.98;94868.16;6268921;22;20177;-83
2022/07/29 07:53:49;;;;;;;7.55;5.88;;;;;;;24.86;75.56;94868.59;6269984;22;20516;-86
2022/07/29 07:56:16;;;;;;;8.80;5.85;;;;;;;24.96;76.80;94868.34;6269894;22;20787;-86
2022/07/29 07:58:45;;;;;;;10.68;5.78;;;;;;;25.11;76.14;94864.50;6267327;22;20169;-87
2022/07/29 08:01:11;;;;;;;7.88;5.60;;;;;;;25.20;74.32;94862.69;6269528;22;20165;-86
2022/07/29 08:03:39;;;;;;;8.93;5.97;;;;;;;25.29;73.95;94856.34;6269270;22;20519;-87
2022/07/29 08:06:06;;;;;;;5.57;5.07;;;;;;;25.35;74.18;94846.34;6269750;22;20192;-86
2022/07/29 08:08:34;;;;;;;6.78;5.50;;;;;;;25.66;72.71;94860.47;6270554;22;20172;-85
2022/07/29 08:11:01;;;;;;;7.88;5.88;;;;;;;25.71;72.03;94873.66;6271888;22;20358;-86
2022/07/29 08:13:29;;;;;;;6.38;5.13;;;;;;;25.76;72.57;94859.41;6271631;22;20728;-87
2022/07/29 08:15:59;;;;;;;7.03;5.40;;;;;;;25.90;71.79;94858.22;6271859;22;20173;-85
2022/07/29 08:18:27;;;;;;;8.70;5.38;;;;;;;25.99;70.92;94852.13;6272059;22;20157;-85
2022/07/29 08:20:55;;;;;;;7.90;5.22;;;;;;;26.15;70.67;94862.06;6269728;22;20279;-81
2022/07/29 08:23:22;;;;;;;9.25;5.60;;;;;;;26.18;69.69;94863.31;6266712;22;20173;-82
2022/07/29 08:25:49;;;;;;;14.02;6.50;;;;;;;26.22;71.83;94857.06;6266599;22;20629;-81
2022/07/29 08:28:16;;;;;;;34.95;7.75;;;;;;;26.42;73.18;94858.34;6271436;22;20165;-88
2022/07/29 08:30:43;;;;;;;8.13;5.38;;;;;;;26.36;68.50;94867.59;6271944;22;20172;-88
2022/07/29 08:33:12;;;;;;;7.53;5.43;;;;;;;26.44;69.35;94864.16;6272545;22;20192;-90
2022/07/29 08:35:40;;;;;;;5.55;4.82;;;;;;;26.47;67.38;94863.53;6272879;22;20161;-89
2022/07/29 08:38:07;;;;;;;7.13;5.40;;;;;;;26.41;66.12;94856.78;6271928;22;20161;-89
2022/07/29 08:40:34;;;;;;;8.18;5.32;;;;;;;26.22;66.74;94845.63;6271134;22;20184;-90
2022/07/29 08:43:06;;;;;;;7.03;4.95;;;;;;;26.42;67.97;94855.69;6271233;22;20165;-88
2022/07/29 08:45:44;;;;;;;12.02;5.00;;;;;;;26.62;67.62;94847.06;6270135;22;20659;-88
2022/07/29 08:48:12;;;;;;;7.38;4.70;;;;;;;26.89;66.06;94846.78;6270089;22;20164;-81
2022/07/29 08:50:41;;;;;;;5.65;4.78;;;;;;;27.16;64.75;94858.22;6267620;22;20223;-84
2022/07/29 08:53:12;;;;;;;6.72;4.90;;;;;;;27.27;63.90;94854.91;6268523;22;20165;-81
2022/07/29 08:55:41;;;;;;;7.07;5.10;;;;;;;27.40;64.19;94853.13;6270315;22;20153;-83
2022/07/29 08:58:08;;;;;;;6.25;4.88;;;;;;;27.48;62.03;94849.66;6268584;22;20199;-83
2022/07/29 09:00:37;;;;;;;9.75;4.70;;;;;;;27.57;63.44;94853.88;6269627;22;20175;-84
2022/07/29 09:03:05;;;;;;;5.32;4.70;;;;;;;27.65;61.77;94848.84;6269825;22;20200;-84
2022/07/29 09:05:35;;;;;;;6.55;4.88;;;;;;;27.79;60.61;94852.88;6270303;22;20197;-86
2022/07/29 09:08:03;;;;;;;6.20;4.45;;;;;;;27.92;61.08;94846.50;6270169;22;20176;-82
2022/07/29 09:10:30;;;;;;;5.82;4.53;;;;;;;28.08;59.38;94846.78;6269657;22;20172;-84
2022/07/29 09:12:56;;;;;;;8.15;4.63;;;;;;;28.12;59.45;94842.34;6270338;22;20197;-82
2022/07/29 09:15:23;;;;;;;5.88;4.63;;;;;;;28.25;59.71;94845.91;6271226;22;20173;-82
2022/07/29 09:17:50;;;;;;;6.55;4.50;;;;;;;28.37;58.76;94843.31;6271297;22;20169;-83
2022/07/29 09:20:19;;;;;;;6.18;4.60;;;;;;;28.46;58.99;94847.47;6269584;22;20165;-83
2022/07/29 09:22:49;;;;;;;4.80;4.30;;;;;;;28.58;58.30;94836.84;6268977;22;20663;-83
2022/07/29 09:25:32;;;;;;;6.75;4.72;;;;;;;28.65;57.38;94839.03;6268970;22;20189;-81
2022/07/29 09:28:07;;;;;;;6.13;4.38;;;;;;;28.67;56.55;94837.59;6267404;22;20157;-83
2022/07/29 09:30:34;;;;;;;4.97;4.15;;;;;;;28.70;55.87;94841.50;6268031;22;20195;-82
2022/07/29 09:33:04;;;;;;;7.50;4.80;;;;;;;28.78;56.61;94839.88;6266921;22;20168;-83
2022/07/29 09:35:32;;;;;;;6.38;4.80;;;;;;;28.97;56.62;94845.53;6266621;22;20157;-82
2022/07/29 09:38:11;;;;;;;6.53;4.70;;;;;;;29.10;54.66;94837.22;6267086;22;20165;-84
2022/07/29 09:40:38;;;;;;;5.10;4.60;;;;;;;29.20;54.58;94842.16;6269273;22;20188;-81
2022/07/29 09:43:11;;;;;;;5.90;4.63;;;;;;;29.28;54.44;94840.53;6268946;22;20187;-82
2022/07/29 09:45:38;;;;;;;6.40;4.70;;;;;;;29.39;53.66;94840.88;6268951;22;20173;-82
2022/07/29 09:48:14;;;;;;;9.13;4.45;;;;;;;29.45;54.63;94831.53;6267887;22;20165;-82
2022/07/29 09:50:44;;;;;;;5.82;4.50;;;;;;;29.60;53.05;94837.03;6268448;22;20175;-82
2022/07/29 09:53:13;;;;;;;5.13;4.65;;;;;;;29.60;51.71;94833.56;6268941;22;20213;-81
2022/07/29 09:55:50;;;;;;;5.53;4.50;;;;;;;29.61;52.43;94835.91;6265973;22;20206;-81
2022/07/29 09:58:18;;;;;;;7.05;4.60;;;;;;;29.70;52.32;94838.47;6268857;22;20173;-82
2022/07/29 10:00:46;;;;;;;8.10;4.85;;;;;;;29.82;52.93;94830.47;6269627;22;20198;-80
2022/07/29 10:03:13;;;;;;;5.25;4.60;;;;;;;29.93;52.94;94825.47;6270335;22;20230;-80
2022/07/29 10:05:41;;;;;;;6.65;4.72;;;;;;;30.11;52.83;94819.53;6268172;22;20189;-79
2022/07/29 10:08:09;;;;;;;5.03;4.57;;;;;;;30.01;51.11;94817.31;6268813;22;20196;-80
2022/07/29 10:10:39;;;;;;;5.40;4.90;;;;;;;29.89;52.69;94808.47;6267380;22;20169;-80
2022/07/29 10:13:08;;;;;;;6.68;4.60;;;;;;;29.97;52.35;94800.31;6268243;22;20201;-81
2022/07/29 10:15:39;;;;;;;5.18;4.68;;;;;;;30.22;52.37;94801.06;6267665;22;20640;-81
2022/07/29 10:18:07;;;;;;;6.13;4.60;;;;;;;30.49;51.17;94795.00;6268079;22;20690;-81
2022/07/29 10:20:34;;;;;;;6.53;5.07;;;;;;;30.72;50.64;94798.72;6269231;22;20168;-81
2022/07/29 10:23:02;;;;;;;5.03;4.53;;;;;;;30.93;50.01;94806.63;6269150;22;20169;-81
2022/07/29 10:25:29;;;;;;;8.70;5.40;;;;;;;30.62;51.10;94806.50;6268397;22;20191;-82
2022/07/29 10:27:59;;;;;;;7.38;5.00;;;;;;;30.37;51.51;94792.31;6268976;22;20172;-81
2022/07/29 10:30:30;;;;;;;5.63;5.05;;;;;;;30.34;51.89;94796.47;6269201;22;20181;-81
2022/07/29 10:33:20;;;;;;;7.55;5.20;;;;;;;30.72;51.62;94787.19;6268336;22;20169;-81
2022/07/29 10:36:03;;;;;;;8.23;5.15;;;;;;;31.04;51.23;94794.25;6265244;22;20164;-81
2022/07/29 10:38:56;;;;;;;7.50;4.78;;;;;;;31.29;50.69;94784.94;6266277;22;20160;-81
2022/07/29 10:41:48;;;;;;;5.95;5.10;;;;;;;31.54;49.73;94782.91;6260396;22;20283;-80
2022/07/29 10:44:20;;;;;;;5.68;4.60;;;;;;;31.72;49.50;94786.78;6266398;22;20169;-80
2022/07/29 10:46:47;;;;;;;5.13;4.63;;;;;;;31.88;48.57;94773.34;6264753;22;20644;-81
2022/07/29 10:49:19;;;;;;;5.57;4.40;;;;;;;32.07;47.34;94781.47;6265472;22;20188;-82
2022/07/29 10:52:02;;;;;;;6.30;4.90;;;;;;;32.13;46.97;94780.06;6264995;22;20168;-83
2022/07/29 10:54:52;;;;;;;5.70;4.93;;;;;;;32.30;46.24;94773.50;6267558;22;20651;-81
2022/07/29 10:57:26;;;;;;;8.20;4.90;;;;;;;32.38;45.73;94769.84;6266764;22;20617;-80
2022/07/29 11:00:33;;;;;;;5.18;4.10;;;;;;;32.55;44.79;94766.78;6266142;22;20169;-80
2022/07/29 11:03:00;;;;;;;7.45;4.93;;;;;;;32.74;45.33;94761.38;6258726;22;20231;-81
2022/07/29 11:05:29;;;;;;;5.03;4.50;;;;;;;32.88;44.12;94768.94;6267487;22;20462;-81
2022/07/29 11:08:20;;;;;;;6.13;4.38;;;;;;;33.13;44.01;94762.91;6270179;22;20165;-81
2022/07/29 11:10:47;;;;;;;8.65;5.15;;;;;;;33.24;44.75;94768.50;6267049;22;20200;-78
2022/07/29 11:13:14;;;;;;;5.50;5.00;;;;;;;33.40;44.33;94758.38;6266891;22;20204;-81
2022/07/29 11:15:58;;;;;;;6.88;5.28;;;;;;;33.55;43.44;94764.78;6267246;22;20203;-79
2022/07/29 11:18:25;;;;;;;4.88;4.03;;;;;;;33.66;42.48;94758.44;6265486;22;20512;-77
2022/07/29 11:20:54;;;;;;;5.60;4.72;;;;;;;33.72;42.48;94758.91;6265617;22;20173;-77
2022/07/29 11:23:24;;;;;;;6.25;4.78;;;;;;;33.94;43.17;94752.69;6265836;22;20169;-80
2022/07/29 11:26:15;;;;;;;6.32;4.47;;;;;;;34.12;41.99;94753.75;6266107;22;20189;-79
2022/07/29 11:28:51;;;;;;;6.43;4.07;;;;;;;34.32;41.73;94748.22;6266074;22;20199;-80
2022/07/29 11:31:32;;;;;;;5.68;4.35;;;;;;;34.42;41.80;94751.06;6267498;22;20674;-79
2022/07/29 11:34:17;;;;;;;4.80;4.30;;;;;;;34.41;40.86;94752.22;6266152;22;20180;-79
2022/07/29 11:37:18;;;;;;;7.90;4.20;;;;;;;34.22;40.85;94750.44;6269174;22;20229;-84